Weather at Arrachart Airport

Public forecast

Using degrees Celsius for public forecast. Weather courtesy of forecast.io.

Current aviation weather report (METAR) for Arrachart Airport

Report is more than 6 hours old.

2022/11/14 15:00 (retrieved 2 years ago)

FMNA 141500Z 14006KT 9999 FEW020 SCT040 26/19 Q1013

Aviation forecast (TAF) for Arrachart Airport

Forecast is more than 12 hours old.

2023/02/22 18:09 (retrieved 1 year ago)

TAF FMNA 221700Z 2218/2318 14012KT 9000 FEW010 BKN020CB TEMPO 2218/2318 4000 TSRA